sensor_id;sensor_type;location;lat;lon;timestamp;P1;durP1;ratioP1;P2;durP2;ratioP2
73678;SDS011;61978;52.742;16.962;2023-10-19T00:01:58;59.10;;;35.80;;
73678;SDS011;61978;52.742;16.962;2023-10-19T00:04:24;60.00;;;35.50;;
73678;SDS011;61978;52.742;16.962;2023-10-19T00:06:52;60.70;;;36.40;;
73678;SDS011;61978;52.742;16.962;2023-10-19T00:09:21;63.90;;;36.90;;
73678;SDS011;61978;52.742;16.962;2023-10-19T00:11:48;60.30;;;37.30;;
73678;SDS011;61978;52.742;16.962;2023-10-19T00:14:17;63.60;;;35.80;;
73678;SDS011;61978;52.742;16.962;2023-10-19T00:16:44;52.20;;;34.50;;
73678;SDS011;61978;52.742;16.962;2023-10-19T00:19:17;61.70;;;35.10;;
73678;SDS011;61978;52.742;16.962;2023-10-19T00:21:45;59.00;;;35.50;;
73678;SDS011;61978;52.742;16.962;2023-10-19T00:24:17;51.50;;;33.60;;
73678;SDS011;61978;52.742;16.962;2023-10-19T00:26:43;55.30;;;35.10;;
73678;SDS011;61978;52.742;16.962;2023-10-19T00:29:09;58.70;;;36.30;;
73678;SDS011;61978;52.742;16.962;2023-10-19T00:32:01;54.30;;;32.20;;
73678;SDS011;61978;52.742;16.962;2023-10-19T00:34:32;47.80;;;31.60;;
73678;SDS011;61978;52.742;16.962;2023-10-19T00:36:59;52.70;;;32.10;;
73678;SDS011;61978;52.742;16.962;2023-10-19T00:39:36;61.60;;;41.70;;
73678;SDS011;61978;52.742;16.962;2023-10-19T00:42:09;44.60;;;29.30;;
73678;SDS011;61978;52.742;16.962;2023-10-19T00:44:35;50.30;;;30.00;;
73678;SDS011;61978;52.742;16.962;2023-10-19T00:47:08;46.50;;;29.90;;
73678;SDS011;61978;52.742;16.962;2023-10-19T00:49:39;50.30;;;29.80;;
73678;SDS011;61978;52.742;16.962;2023-10-19T00:52:05;71.40;;;38.00;;
73678;SDS011;61978;52.742;16.962;2023-10-19T00:54:39;48.20;;;30.60;;
73678;SDS011;61978;52.742;16.962;2023-10-19T00:57:18;42.90;;;28.00;;
73678;SDS011;61978;52.742;16.962;2023-10-19T00:59:57;49.70;;;28.70;;
73678;SDS011;61978;52.742;16.962;2023-10-19T01:02:39;42.20;;;27.70;;
73678;SDS011;61978;52.742;16.962;2023-10-19T01:05:11;38.30;;;25.70;;
73678;SDS011;61978;52.742;16.962;2023-10-19T01:07:39;40.30;;;26.00;;
73678;SDS011;61978;52.742;16.962;2023-10-19T01:10:07;40.10;;;25.90;;
73678;SDS011;61978;52.742;16.962;2023-10-19T01:12:53;46.40;;;28.10;;
73678;SDS011;61978;52.742;16.962;2023-10-19T01:15:20;39.90;;;26.70;;
73678;SDS011;61978;52.742;16.962;2023-10-19T01:17:55;44.50;;;27.30;;
73678;SDS011;61978;52.742;16.962;2023-10-19T01:20:25;40.30;;;26.40;;
73678;SDS011;61978;52.742;16.962;2023-10-19T01:25:42;33.00;;;24.20;;
73678;SDS011;61978;52.742;16.962;2023-10-19T01:28:32;36.70;;;24.70;;
73678;SDS011;61978;52.742;16.962;2023-10-19T01:31:14;35.80;;;25.40;;
73678;SDS011;61978;52.742;16.962;2023-10-19T01:34:03;42.70;;;25.10;;
73678;SDS011;61978;52.742;16.962;2023-10-19T01:36:34;37.70;;;23.90;;
73678;SDS011;61978;52.742;16.962;2023-10-19T01:39:08;35.60;;;23.80;;
73678;SDS011;61978;52.742;16.962;2023-10-19T01:41:37;38.20;;;24.60;;
73678;SDS011;61978;52.742;16.962;2023-10-19T01:44:03;40.90;;;26.60;;
73678;SDS011;61978;52.742;16.962;2023-10-19T01:46:33;35.30;;;23.70;;
73678;SDS011;61978;52.742;16.962;2023-10-19T01:48:59;34.60;;;24.90;;
73678;SDS011;61978;52.742;16.962;2023-10-19T01:51:28;37.70;;;23.20;;
73678;SDS011;61978;52.742;16.962;2023-10-19T01:53:55;40.00;;;25.60;;
73678;SDS011;61978;52.742;16.962;2023-10-19T01:56:21;35.90;;;23.50;;
73678;SDS011;61978;52.742;16.962;2023-10-19T01:58:48;34.30;;;24.30;;
73678;SDS011;61978;52.742;16.962;2023-10-19T02:01:17;35.50;;;23.90;;
73678;SDS011;61978;52.742;16.962;2023-10-19T02:03:47;40.20;;;25.00;;
73678;SDS011;61978;52.742;16.962;2023-10-19T02:06:13;36.20;;;24.20;;
73678;SDS011;61978;52.742;16.962;2023-10-19T02:08:49;39.70;;;24.20;;
73678;SDS011;61978;52.742;16.962;2023-10-19T02:11:22;35.30;;;25.10;;
73678;SDS011;61978;52.742;16.962;2023-10-19T02:13:49;37.60;;;25.20;;
73678;SDS011;61978;52.742;16.962;2023-10-19T02:16:16;35.70;;;23.80;;
73678;SDS011;61978;52.742;16.962;2023-10-19T02:18:43;31.80;;;22.70;;
73678;SDS011;61978;52.742;16.962;2023-10-19T02:21:09;32.30;;;23.10;;
73678;SDS011;61978;52.742;16.962;2023-10-19T02:23:38;34.60;;;22.00;;
73678;SDS011;61978;52.742;16.962;2023-10-19T02:26:05;34.40;;;22.70;;
73678;SDS011;61978;52.742;16.962;2023-10-19T02:28:31;34.30;;;23.30;;
73678;SDS011;61978;52.742;16.962;2023-10-19T02:30:58;33.80;;;22.80;;
73678;SDS011;61978;52.742;16.962;2023-10-19T02:33:36;35.40;;;22.20;;
73678;SDS011;61978;52.742;16.962;2023-10-19T02:36:03;30.50;;;22.70;;
73678;SDS011;61978;52.742;16.962;2023-10-19T02:38:29;36.00;;;23.50;;
73678;SDS011;61978;52.742;16.962;2023-10-19T02:40:56;34.10;;;24.10;;
73678;SDS011;61978;52.742;16.962;2023-10-19T02:43:22;36.60;;;26.00;;
73678;SDS011;61978;52.742;16.962;2023-10-19T02:45:51;35.50;;;25.80;;
73678;SDS011;61978;52.742;16.962;2023-10-19T02:48:17;39.00;;;25.40;;
73678;SDS011;61978;52.742;16.962;2023-10-19T02:50:42;35.30;;;25.30;;
73678;SDS011;61978;52.742;16.962;2023-10-19T02:53:09;35.30;;;24.90;;
73678;SDS011;61978;52.742;16.962;2023-10-19T02:55:39;37.30;;;26.00;;
73678;SDS011;61978;52.742;16.962;2023-10-19T02:58:06;39.80;;;25.90;;
73678;SDS011;61978;52.742;16.962;2023-10-19T03:00:32;37.00;;;24.80;;
73678;SDS011;61978;52.742;16.962;2023-10-19T03:02:59;38.20;;;24.70;;
73678;SDS011;61978;52.742;16.962;2023-10-19T03:05:26;41.80;;;27.00;;
73678;SDS011;61978;52.742;16.962;2023-10-19T03:07:52;34.00;;;24.60;;
73678;SDS011;61978;52.742;16.962;2023-10-19T03:10:18;33.00;;;24.10;;
73678;SDS011;61978;52.742;16.962;2023-10-19T03:13:00;39.10;;;26.10;;
73678;SDS011;61978;52.742;16.962;2023-10-19T03:15:26;41.30;;;26.60;;
73678;SDS011;61978;52.742;16.962;2023-10-19T03:17:55;42.70;;;27.50;;
73678;SDS011;61978;52.742;16.962;2023-10-19T03:20:20;35.80;;;25.50;;
73678;SDS011;61978;52.742;16.962;2023-10-19T03:22:49;40.50;;;26.80;;
73678;SDS011;61978;52.742;16.962;2023-10-19T03:25:15;41.70;;;25.40;;
73678;SDS011;61978;52.742;16.962;2023-10-19T03:28:07;45.70;;;28.80;;
73678;SDS011;61978;52.742;16.962;2023-10-19T03:30:43;38.50;;;25.60;;
73678;SDS011;61978;52.742;16.962;2023-10-19T03:33:09;38.10;;;25.70;;
73678;SDS011;61978;52.742;16.962;2023-10-19T03:35:37;39.60;;;25.80;;
73678;SDS011;61978;52.742;16.962;2023-10-19T03:38:04;39.90;;;25.60;;
73678;SDS011;61978;52.742;16.962;2023-10-19T03:40:45;35.70;;;22.90;;
73678;SDS011;61978;52.742;16.962;2023-10-19T03:43:17;35.20;;;24.70;;
73678;SDS011;61978;52.742;16.962;2023-10-19T03:45:47;36.60;;;26.30;;
73678;SDS011;61978;52.742;16.962;2023-10-19T03:48:20;38.70;;;25.50;;
73678;SDS011;61978;52.742;16.962;2023-10-19T03:50:52;37.10;;;25.10;;
73678;SDS011;61978;52.742;16.962;2023-10-19T03:53:22;40.50;;;26.00;;
73678;SDS011;61978;52.742;16.962;2023-10-19T03:55:49;37.10;;;25.30;;
73678;SDS011;61978;52.742;16.962;2023-10-19T03:58:20;35.30;;;25.10;;
73678;SDS011;61978;52.742;16.962;2023-10-19T04:00:49;34.20;;;25.30;;
73678;SDS011;61978;52.742;16.962;2023-10-19T04:03:15;37.40;;;26.00;;
73678;SDS011;61978;52.742;16.962;2023-10-19T04:05:43;42.00;;;27.50;;
73678;SDS011;61978;52.742;16.962;2023-10-19T04:08:13;45.60;;;29.80;;
73678;SDS011;61978;52.742;16.962;2023-10-19T04:10:41;40.80;;;28.30;;
73678;SDS011;61978;52.742;16.962;2023-10-19T04:13:10;42.50;;;29.20;;
73678;SDS011;61978;52.742;16.962;2023-10-19T04:15:37;40.00;;;28.20;;
73678;SDS011;61978;52.742;16.962;2023-10-19T04:18:03;39.10;;;26.40;;
73678;SDS011;61978;52.742;16.962;2023-10-19T04:23:20;36.70;;;25.00;;
73678;SDS011;61978;52.742;16.962;2023-10-19T04:25:47;36.20;;;25.00;;
73678;SDS011;61978;52.742;16.962;2023-10-19T04:28:12;38.10;;;26.10;;
73678;SDS011;61978;52.742;16.962;2023-10-19T04:30:41;39.70;;;28.40;;
73678;SDS011;61978;52.742;16.962;2023-10-19T04:33:07;47.80;;;31.30;;
73678;SDS011;61978;52.742;16.962;2023-10-19T04:35:36;42.20;;;28.60;;
73678;SDS011;61978;52.742;16.962;2023-10-19T04:38:03;43.90;;;29.00;;
73678;SDS011;61978;52.742;16.962;2023-10-19T04:40:31;36.70;;;27.70;;
73678;SDS011;61978;52.742;16.962;2023-10-19T04:42:57;37.20;;;25.30;;
73678;SDS011;61978;52.742;16.962;2023-10-19T04:45:23;35.60;;;26.40;;
73678;SDS011;61978;52.742;16.962;2023-10-19T04:47:52;37.90;;;26.70;;
73678;SDS011;61978;52.742;16.962;2023-10-19T04:50:18;37.80;;;27.10;;
73678;SDS011;61978;52.742;16.962;2023-10-19T04:52:44;42.10;;;25.70;;
73678;SDS011;61978;52.742;16.962;2023-10-19T04:55:10;36.00;;;25.80;;
73678;SDS011;61978;52.742;16.962;2023-10-19T04:57:36;35.50;;;25.20;;
73678;SDS011;61978;52.742;16.962;2023-10-19T05:00:02;38.30;;;25.60;;
73678;SDS011;61978;52.742;16.962;2023-10-19T05:02:29;38.00;;;26.10;;
73678;SDS011;61978;52.742;16.962;2023-10-19T05:04:54;38.40;;;26.60;;
73678;SDS011;61978;52.742;16.962;2023-10-19T05:07:20;36.90;;;25.80;;
73678;SDS011;61978;52.742;16.962;2023-10-19T05:09:46;38.50;;;26.30;;
73678;SDS011;61978;52.742;16.962;2023-10-19T05:12:13;41.30;;;26.30;;
73678;SDS011;61978;52.742;16.962;2023-10-19T05:14:40;33.20;;;25.30;;
73678;SDS011;61978;52.742;16.962;2023-10-19T05:17:09;43.00;;;27.30;;
73678;SDS011;61978;52.742;16.962;2023-10-19T05:19:36;42.30;;;29.30;;
73678;SDS011;61978;52.742;16.962;2023-10-19T05:22:06;39.00;;;27.30;;
73678;SDS011;61978;52.742;16.962;2023-10-19T05:24:32;36.70;;;25.80;;
73678;SDS011;61978;52.742;16.962;2023-10-19T05:26:59;36.20;;;25.50;;
73678;SDS011;61978;52.742;16.962;2023-10-19T05:29:24;33.20;;;23.70;;
73678;SDS011;61978;52.742;16.962;2023-10-19T05:31:50;35.90;;;25.20;;
73678;SDS011;61978;52.742;16.962;2023-10-19T05:34:22;36.60;;;25.60;;
73678;SDS011;61978;52.742;16.962;2023-10-19T05:36:49;40.00;;;25.40;;
73678;SDS011;61978;52.742;16.962;2023-10-19T05:39:15;37.70;;;24.90;;
73678;SDS011;61978;52.742;16.962;2023-10-19T05:41:42;35.50;;;23.60;;
73678;SDS011;61978;52.742;16.962;2023-10-19T05:44:08;37.10;;;24.20;;
73678;SDS011;61978;52.742;16.962;2023-10-19T05:46:35;38.70;;;25.30;;
73678;SDS011;61978;52.742;16.962;2023-10-19T05:49:02;36.20;;;25.30;;
73678;SDS011;61978;52.742;16.962;2023-10-19T05:51:30;40.10;;;25.40;;
73678;SDS011;61978;52.742;16.962;2023-10-19T05:53:56;40.30;;;25.20;;
73678;SDS011;61978;52.742;16.962;2023-10-19T05:56:30;38.40;;;24.00;;
73678;SDS011;61978;52.742;16.962;2023-10-19T05:58:56;35.70;;;25.30;;
73678;SDS011;61978;52.742;16.962;2023-10-19T06:01:23;39.40;;;25.30;;
73678;SDS011;61978;52.742;16.962;2023-10-19T06:03:49;48.10;;;25.20;;
73678;SDS011;61978;52.742;16.962;2023-10-19T06:06:16;40.00;;;26.60;;
73678;SDS011;61978;52.742;16.962;2023-10-19T06:08:42;42.50;;;26.90;;
73678;SDS011;61978;52.742;16.962;2023-10-19T06:11:08;35.80;;;24.10;;
73678;SDS011;61978;52.742;16.962;2023-10-19T06:13:35;35.40;;;24.40;;
73678;SDS011;61978;52.742;16.962;2023-10-19T06:16:01;37.90;;;24.60;;
73678;SDS011;61978;52.742;16.962;2023-10-19T06:18:28;35.50;;;23.90;;
73678;SDS011;61978;52.742;16.962;2023-10-19T06:20:55;38.30;;;25.10;;
73678;SDS011;61978;52.742;16.962;2023-10-19T06:23:21;41.10;;;24.90;;
73678;SDS011;61978;52.742;16.962;2023-10-19T06:25:47;47.20;;;25.00;;
73678;SDS011;61978;52.742;16.962;2023-10-19T06:28:14;37.90;;;24.20;;
73678;SDS011;61978;52.742;16.962;2023-10-19T06:30:41;35.10;;;23.70;;
73678;SDS011;61978;52.742;16.962;2023-10-19T06:33:08;37.60;;;25.00;;
73678;SDS011;61978;52.742;16.962;2023-10-19T06:35:33;33.00;;;24.30;;
73678;SDS011;61978;52.742;16.962;2023-10-19T06:38:01;37.40;;;24.70;;
73678;SDS011;61978;52.742;16.962;2023-10-19T06:40:29;33.90;;;23.90;;
73678;SDS011;61978;52.742;16.962;2023-10-19T06:42:57;35.30;;;25.20;;
73678;SDS011;61978;52.742;16.962;2023-10-19T06:45:24;36.70;;;23.10;;
73678;SDS011;61978;52.742;16.962;2023-10-19T06:47:55;35.60;;;22.70;;
73678;SDS011;61978;52.742;16.962;2023-10-19T06:50:21;35.80;;;23.00;;
73678;SDS011;61978;52.742;16.962;2023-10-19T06:52:48;40.80;;;23.70;;
73678;SDS011;61978;52.742;16.962;2023-10-19T06:55:18;42.00;;;23.20;;
73678;SDS011;61978;52.742;16.962;2023-10-19T06:57:49;29.90;;;20.90;;
73678;SDS011;61978;52.742;16.962;2023-10-19T07:00:16;30.10;;;21.20;;
73678;SDS011;61978;52.742;16.962;2023-10-19T07:02:45;34.90;;;21.40;;
73678;SDS011;61978;52.742;16.962;2023-10-19T07:05:12;33.50;;;21.50;;
73678;SDS011;61978;52.742;16.962;2023-10-19T07:07:43;33.70;;;21.80;;
73678;SDS011;61978;52.742;16.962;2023-10-19T07:10:10;31.70;;;21.20;;
73678;SDS011;61978;52.742;16.962;2023-10-19T07:12:38;27.80;;;19.40;;
73678;SDS011;61978;52.742;16.962;2023-10-19T07:15:05;33.90;;;21.80;;
73678;SDS011;61978;52.742;16.962;2023-10-19T07:17:40;29.80;;;20.60;;
73678;SDS011;61978;52.742;16.962;2023-10-19T07:20:06;30.50;;;19.70;;
73678;SDS011;61978;52.742;16.962;2023-10-19T07:22:33;32.60;;;19.90;;
73678;SDS011;61978;52.742;16.962;2023-10-19T07:24:59;28.00;;;18.80;;
73678;SDS011;61978;52.742;16.962;2023-10-19T07:27:25;27.40;;;18.60;;
73678;SDS011;61978;52.742;16.962;2023-10-19T07:29:53;31.20;;;19.10;;
73678;SDS011;61978;52.742;16.962;2023-10-19T07:32:20;29.90;;;19.10;;
73678;SDS011;61978;52.742;16.962;2023-10-19T07:34:47;30.50;;;19.40;;
73678;SDS011;61978;52.742;16.962;2023-10-19T07:37:14;25.40;;;18.10;;
73678;SDS011;61978;52.742;16.962;2023-10-19T07:39:46;31.90;;;18.70;;
73678;SDS011;61978;52.742;16.962;2023-10-19T07:42:14;32.60;;;19.50;;
73678;SDS011;61978;52.742;16.962;2023-10-19T07:44:40;27.40;;;19.10;;
73678;SDS011;61978;52.742;16.962;2023-10-19T07:47:06;24.90;;;16.80;;
73678;SDS011;61978;52.742;16.962;2023-10-19T07:49:37;28.20;;;18.10;;
73678;SDS011;61978;52.742;16.962;2023-10-19T07:52:07;25.90;;;17.50;;
73678;SDS011;61978;52.742;16.962;2023-10-19T07:54:36;32.70;;;18.60;;
73678;SDS011;61978;52.742;16.962;2023-10-19T07:57:03;28.20;;;17.50;;
73678;SDS011;61978;52.742;16.962;2023-10-19T07:59:34;28.30;;;18.20;;
73678;SDS011;61978;52.742;16.962;2023-10-19T08:02:00;24.00;;;13.90;;
73678;SDS011;61978;52.742;16.962;2023-10-19T08:04:30;26.40;;;15.60;;
73678;SDS011;61978;52.742;16.962;2023-10-19T08:06:57;30.50;;;17.00;;
73678;SDS011;61978;52.742;16.962;2023-10-19T08:09:23;25.30;;;16.20;;
73678;SDS011;61978;52.742;16.962;2023-10-19T08:11:50;26.30;;;16.80;;
73678;SDS011;61978;52.742;16.962;2023-10-19T08:14:23;27.40;;;16.30;;
73678;SDS011;61978;52.742;16.962;2023-10-19T08:16:53;30.00;;;17.10;;
73678;SDS011;61978;52.742;16.962;2023-10-19T08:19:19;23.10;;;15.60;;
73678;SDS011;61978;52.742;16.962;2023-10-19T08:21:45;23.80;;;16.00;;
73678;SDS011;61978;52.742;16.962;2023-10-19T08:24:11;24.20;;;15.40;;
73678;SDS011;61978;52.742;16.962;2023-10-19T08:26:43;23.20;;;15.80;;
73678;SDS011;61978;52.742;16.962;2023-10-19T08:29:10;26.20;;;16.20;;
73678;SDS011;61978;52.742;16.962;2023-10-19T08:31:42;23.40;;;15.00;;
73678;SDS011;61978;52.742;16.962;2023-10-19T08:34:11;27.00;;;15.30;;
73678;SDS011;61978;52.742;16.962;2023-10-19T08:36:40;28.60;;;15.60;;
73678;SDS011;61978;52.742;16.962;2023-10-19T08:39:06;29.00;;;15.30;;
73678;SDS011;61978;52.742;16.962;2023-10-19T08:41:35;21.40;;;14.80;;
73678;SDS011;61978;52.742;16.962;2023-10-19T08:44:03;24.10;;;15.10;;
73678;SDS011;61978;52.742;16.962;2023-10-19T08:46:28;22.90;;;14.70;;
73678;SDS011;61978;52.742;16.962;2023-10-19T08:48:55;22.80;;;14.70;;
73678;SDS011;61978;52.742;16.962;2023-10-19T08:51:22;19.50;;;14.50;;
73678;SDS011;61978;52.742;16.962;2023-10-19T08:53:52;21.70;;;14.20;;
73678;SDS011;61978;52.742;16.962;2023-10-19T08:56:19;21.00;;;14.40;;
73678;SDS011;61978;52.742;16.962;2023-10-19T08:58:46;19.80;;;14.20;;
73678;SDS011;61978;52.742;16.962;2023-10-19T09:01:12;23.60;;;14.10;;
73678;SDS011;61978;52.742;16.962;2023-10-19T09:03:38;20.60;;;13.50;;
73678;SDS011;61978;52.742;16.962;2023-10-19T09:06:11;21.90;;;13.60;;
73678;SDS011;61978;52.742;16.962;2023-10-19T09:08:39;20.50;;;13.50;;
73678;SDS011;61978;52.742;16.962;2023-10-19T09:11:06;22.40;;;14.40;;
73678;SDS011;61978;52.742;16.962;2023-10-19T09:13:44;21.10;;;14.20;;
73678;SDS011;61978;52.742;16.962;2023-10-19T09:16:14;19.50;;;13.50;;
73678;SDS011;61978;52.742;16.962;2023-10-19T09:18:40;20.60;;;14.20;;
73678;SDS011;61978;52.742;16.962;2023-10-19T09:21:06;22.50;;;14.90;;
73678;SDS011;61978;52.742;16.962;2023-10-19T09:23:34;23.40;;;14.00;;
73678;SDS011;61978;52.742;16.962;2023-10-19T09:26:00;24.00;;;14.20;;
73678;SDS011;61978;52.742;16.962;2023-10-19T09:28:31;19.80;;;14.00;;
73678;SDS011;61978;52.742;16.962;2023-10-19T09:31:01;23.80;;;14.60;;
73678;SDS011;61978;52.742;16.962;2023-10-19T09:33:27;22.20;;;13.80;;
73678;SDS011;61978;52.742;16.962;2023-10-19T09:35:53;23.60;;;14.10;;
73678;SDS011;61978;52.742;16.962;2023-10-19T09:38:22;21.30;;;14.50;;
73678;SDS011;61978;52.742;16.962;2023-10-19T09:40:52;21.60;;;14.70;;
73678;SDS011;61978;52.742;16.962;2023-10-19T09:43:41;23.70;;;15.80;;
73678;SDS011;61978;52.742;16.962;2023-10-19T09:46:09;22.50;;;15.10;;
73678;SDS011;61978;52.742;16.962;2023-10-19T09:48:39;23.10;;;15.10;;
73678;SDS011;61978;52.742;16.962;2023-10-19T09:51:11;19.30;;;13.40;;
73678;SDS011;61978;52.742;16.962;2023-10-19T09:53:38;24.10;;;14.40;;
73678;SDS011;61978;52.742;16.962;2023-10-19T09:56:06;23.10;;;14.80;;
73678;SDS011;61978;52.742;16.962;2023-10-19T09:58:42;21.60;;;14.40;;
73678;SDS011;61978;52.742;16.962;2023-10-19T10:01:10;22.50;;;15.00;;
73678;SDS011;61978;52.742;16.962;2023-10-19T10:03:42;26.90;;;16.70;;
73678;SDS011;61978;52.742;16.962;2023-10-19T10:06:10;27.30;;;16.80;;
73678;SDS011;61978;52.742;16.962;2023-10-19T10:08:38;25.80;;;16.10;;
73678;SDS011;61978;52.742;16.962;2023-10-19T10:11:22;26.60;;;15.80;;
73678;SDS011;61978;52.742;16.962;2023-10-19T10:13:48;21.70;;;14.60;;
73678;SDS011;61978;52.742;16.962;2023-10-19T10:16:18;24.50;;;14.90;;
73678;SDS011;61978;52.742;16.962;2023-10-19T10:18:45;21.90;;;14.00;;
73678;SDS011;61978;52.742;16.962;2023-10-19T10:21:14;19.60;;;14.30;;
73678;SDS011;61978;52.742;16.962;2023-10-19T10:23:44;25.10;;;15.50;;
73678;SDS011;61978;52.742;16.962;2023-10-19T10:26:13;25.40;;;15.30;;
73678;SDS011;61978;52.742;16.962;2023-10-19T10:28:40;24.20;;;15.00;;
73678;SDS011;61978;52.742;16.962;2023-10-19T10:33:51;29.30;;;14.40;;
73678;SDS011;61978;52.742;16.962;2023-10-19T10:36:18;26.50;;;14.40;;
73678;SDS011;61978;52.742;16.962;2023-10-19T10:38:45;22.30;;;14.50;;
73678;SDS011;61978;52.742;16.962;2023-10-19T10:41:12;24.70;;;14.10;;
73678;SDS011;61978;52.742;16.962;2023-10-19T10:43:51;20.60;;;13.90;;
73678;SDS011;61978;52.742;16.962;2023-10-19T10:46:22;22.00;;;13.20;;
73678;SDS011;61978;52.742;16.962;2023-10-19T10:48:48;19.20;;;13.10;;
73678;SDS011;61978;52.742;16.962;2023-10-19T10:51:15;16.10;;;11.20;;
73678;SDS011;61978;52.742;16.962;2023-10-19T10:53:42;22.30;;;12.80;;
73678;SDS011;61978;52.742;16.962;2023-10-19T10:56:07;19.00;;;12.10;;
73678;SDS011;61978;52.742;16.962;2023-10-19T10:58:33;21.30;;;13.20;;
73678;SDS011;61978;52.742;16.962;2023-10-19T11:00:59;21.00;;;14.60;;
73678;SDS011;61978;52.742;16.962;2023-10-19T11:03:26;20.90;;;13.80;;
73678;SDS011;61978;52.742;16.962;2023-10-19T11:05:55;22.50;;;14.10;;
73678;SDS011;61978;52.742;16.962;2023-10-19T11:08:24;18.20;;;13.30;;
73678;SDS011;61978;52.742;16.962;2023-10-19T11:10:50;23.40;;;13.80;;
73678;SDS011;61978;52.742;16.962;2023-10-19T11:13:17;23.60;;;14.60;;
73678;SDS011;61978;52.742;16.962;2023-10-19T11:15:49;22.60;;;14.20;;
73678;SDS011;61978;52.742;16.962;2023-10-19T11:21:01;20.30;;;13.40;;
73678;SDS011;61978;52.742;16.962;2023-10-19T11:23:45;23.70;;;14.20;;
73678;SDS011;61978;52.742;16.962;2023-10-19T11:26:21;24.80;;;15.50;;
73678;SDS011;61978;52.742;16.962;2023-10-19T11:28:47;24.70;;;14.70;;
73678;SDS011;61978;52.742;16.962;2023-10-19T11:31:22;26.30;;;15.70;;
73678;SDS011;61978;52.742;16.962;2023-10-19T11:33:49;20.90;;;14.50;;
73678;SDS011;61978;52.742;16.962;2023-10-19T11:36:19;23.50;;;15.20;;
73678;SDS011;61978;52.742;16.962;2023-10-19T11:38:46;25.30;;;16.10;;
73678;SDS011;61978;52.742;16.962;2023-10-19T11:41:13;23.30;;;15.10;;
73678;SDS011;61978;52.742;16.962;2023-10-19T11:43:42;22.20;;;14.50;;
73678;SDS011;61978;52.742;16.962;2023-10-19T11:46:08;19.00;;;14.50;;
73678;SDS011;61978;52.742;16.962;2023-10-19T11:48:37;24.10;;;14.80;;
73678;SDS011;61978;52.742;16.962;2023-10-19T11:51:05;24.20;;;14.70;;
73678;SDS011;61978;52.742;16.962;2023-10-19T11:53:31;18.70;;;13.20;;
73678;SDS011;61978;52.742;16.962;2023-10-19T11:55:59;25.40;;;14.70;;
73678;SDS011;61978;52.742;16.962;2023-10-19T11:58:26;24.50;;;14.20;;
73678;SDS011;61978;52.742;16.962;2023-10-19T12:00:52;24.10;;;17.30;;
73678;SDS011;61978;52.742;16.962;2023-10-19T12:03:20;28.20;;;16.50;;
73678;SDS011;61978;52.742;16.962;2023-10-19T12:05:46;24.20;;;15.00;;
73678;SDS011;61978;52.742;16.962;2023-10-19T12:08:14;22.90;;;15.70;;
73678;SDS011;61978;52.742;16.962;2023-10-19T12:10:39;19.50;;;12.10;;
73678;SDS011;61978;52.742;16.962;2023-10-19T12:13:05;20.90;;;14.80;;
73678;SDS011;61978;52.742;16.962;2023-10-19T12:15:31;24.90;;;17.80;;
73678;SDS011;61978;52.742;16.962;2023-10-19T12:17:58;27.00;;;15.30;;
73678;SDS011;61978;52.742;16.962;2023-10-19T12:20:25;20.50;;;13.90;;
73678;SDS011;61978;52.742;16.962;2023-10-19T12:22:51;19.50;;;15.00;;
73678;SDS011;61978;52.742;16.962;2023-10-19T12:25:22;34.70;;;16.30;;
73678;SDS011;61978;52.742;16.962;2023-10-19T12:27:56;24.20;;;16.10;;
73678;SDS011;61978;52.742;16.962;2023-10-19T12:30:21;23.60;;;14.90;;
73678;SDS011;61978;52.742;16.962;2023-10-19T12:32:48;27.20;;;16.80;;
73678;SDS011;61978;52.742;16.962;2023-10-19T12:35:20;25.00;;;15.00;;
73678;SDS011;61978;52.742;16.962;2023-10-19T12:37:52;22.10;;;14.80;;
73678;SDS011;61978;52.742;16.962;2023-10-19T12:40:18;22.60;;;15.00;;
73678;SDS011;61978;52.742;16.962;2023-10-19T12:42:55;23.80;;;15.40;;
73678;SDS011;61978;52.742;16.962;2023-10-19T12:45:27;22.20;;;14.40;;
73678;SDS011;61978;52.742;16.962;2023-10-19T12:47:53;23.30;;;14.20;;
73678;SDS011;61978;52.742;16.962;2023-10-19T12:50:19;24.30;;;15.20;;
73678;SDS011;61978;52.742;16.962;2023-10-19T12:52:49;26.90;;;15.30;;
73678;SDS011;61978;52.742;16.962;2023-10-19T12:55:15;25.60;;;15.90;;
73678;SDS011;61978;52.742;16.962;2023-10-19T12:57:41;22.40;;;15.80;;
73678;SDS011;61978;52.742;16.962;2023-10-19T13:00:07;24.90;;;14.70;;
73678;SDS011;61978;52.742;16.962;2023-10-19T13:02:54;25.50;;;17.50;;
73678;SDS011;61978;52.742;16.962;2023-10-19T13:05:27;26.00;;;18.70;;
73678;SDS011;61978;52.742;16.962;2023-10-19T13:07:53;25.20;;;17.30;;
73678;SDS011;61978;52.742;16.962;2023-10-19T13:10:19;28.40;;;18.30;;
73678;SDS011;61978;52.742;16.962;2023-10-19T13:12:44;28.50;;;18.10;;
73678;SDS011;61978;52.742;16.962;2023-10-19T13:15:10;30.10;;;18.10;;
73678;SDS011;61978;52.742;16.962;2023-10-19T13:17:39;25.70;;;18.50;;
73678;SDS011;61978;52.742;16.962;2023-10-19T13:20:05;31.20;;;17.60;;
73678;SDS011;61978;52.742;16.962;2023-10-19T13:22:41;22.80;;;15.90;;
73678;SDS011;61978;52.742;16.962;2023-10-19T13:25:07;25.70;;;18.00;;
73678;SDS011;61978;52.742;16.962;2023-10-19T13:27:43;26.10;;;18.20;;
73678;SDS011;61978;52.742;16.962;2023-10-19T13:30:09;30.90;;;19.50;;
73678;SDS011;61978;52.742;16.962;2023-10-19T13:32:40;31.20;;;19.40;;
73678;SDS011;61978;52.742;16.962;2023-10-19T13:35:07;24.30;;;15.80;;
73678;SDS011;61978;52.742;16.962;2023-10-19T13:37:34;25.90;;;17.80;;
73678;SDS011;61978;52.742;16.962;2023-10-19T13:39:59;26.40;;;13.50;;
73678;SDS011;61978;52.742;16.962;2023-10-19T13:42:26;21.30;;;11.00;;
73678;SDS011;61978;52.742;16.962;2023-10-19T13:44:52;21.70;;;12.30;;
73678;SDS011;61978;52.742;16.962;2023-10-19T13:47:18;20.10;;;12.60;;
73678;SDS011;61978;52.742;16.962;2023-10-19T13:49:44;23.60;;;17.20;;
73678;SDS011;61978;52.742;16.962;2023-10-19T13:52:12;24.20;;;16.90;;
73678;SDS011;61978;52.742;16.962;2023-10-19T13:54:40;25.70;;;16.60;;
73678;SDS011;61978;52.742;16.962;2023-10-19T13:57:06;29.00;;;17.40;;
73678;SDS011;61978;52.742;16.962;2023-10-19T13:59:32;29.90;;;17.00;;
73678;SDS011;61978;52.742;16.962;2023-10-19T14:02:00;30.50;;;18.80;;
73678;SDS011;61978;52.742;16.962;2023-10-19T14:04:27;27.80;;;16.60;;
73678;SDS011;61978;52.742;16.962;2023-10-19T14:06:53;26.30;;;17.30;;
73678;SDS011;61978;52.742;16.962;2023-10-19T14:09:19;27.10;;;16.80;;
73678;SDS011;61978;52.742;16.962;2023-10-19T14:11:48;27.50;;;19.10;;
73678;SDS011;61978;52.742;16.962;2023-10-19T14:14:14;31.10;;;19.60;;
73678;SDS011;61978;52.742;16.962;2023-10-19T14:16:42;32.10;;;18.20;;
73678;SDS011;61978;52.742;16.962;2023-10-19T14:19:12;29.90;;;18.20;;
73678;SDS011;61978;52.742;16.962;2023-10-19T14:21:40;26.50;;;18.70;;
73678;SDS011;61978;52.742;16.962;2023-10-19T14:24:08;27.40;;;19.00;;
73678;SDS011;61978;52.742;16.962;2023-10-19T14:26:34;32.20;;;18.30;;
73678;SDS011;61978;52.742;16.962;2023-10-19T14:29:00;29.50;;;18.40;;